Flight Track Log - Related Links

Times and Time Zones

All times are in EDT time to prevent confusion due to time zone crossing. See the SWA8500 flight status page for this flight to view local times or setup timezone preferences in your user account.

Time Position Orientation Groundspeed Altitude Reporting Facility
EDT Latitude Longitude Course Direction KTS MPH feet Rate Location/Type
Tue 05:28:27 AM 47.9228 -122.2872 359° North 150 173 1,900  Level Seattle Center
Tue 05:29:15 AM 47.9631 -122.2878 359° North 210 242 3,200 1,706 Climbing Seattle Center
Tue 05:30:16 AM 47.9694 -122.2247 81° East 228 262 5,000 934 Climbing Seattle Center
Tue 05:31:17 AM 47.9006 -122.2167 176° South 261 300 5,100 47 Climbing Seattle Center
Tue 05:32:23 AM 47.8189 -122.2094 177° South 255 293 5,100  Level Seattle Center
Tue 05:33:12 AM 47.7614 -122.2056 177° South 247 284 5,100  Level Seattle Center
Tue 05:34:12 AM 47.6919 -122.2003 177° South 249 287 5,100  Level Seattle Center
Tue 05:35:12 AM 47.6206 -122.1950 177° South 257 296 5,100  Level Seattle Center
Tue 05:36:13 AM 47.5539 -122.1894 177° South 259 298 5,100 -50 Level Seattle Center
Tue 05:37:13 AM 47.4833 -122.1856 178° South 262 302 5,000 -950 Descending Seattle Center
Tue 05:38:13 AM 47.4106 -122.1814 178° South 264 304 3,200 -1,500 Descending Seattle Center
Tue 05:38:33 AM 47.3781 -122.1814 180° South 267 307 3,000 -300 Descending Seattle Center
Tue 05:39:13 AM 47.3597 -122.2217 236° Southwest 231 266 2,900 -393 Descending Seattle Center
Tue 05:39:34 AM 47.3594 -122.2572 269° West 185 213 2,600 -800 Descending Seattle Center
Tue 05:40:13 AM 47.3639 -122.2878 282° West 152 175 2,100 -1,200 Descending Seattle Center
Tue 05:40:34 AM 47.3778 -122.3028 324° Northwest 120 138 1,400 -1,100 Descending Seattle Center
Tue 05:41:13 AM 47.3964 -122.3086 348° North 128 147 1,000 -590 Descending Seattle Center
Tue 05:41:35 AM 47.4128 -122.3097 357° North 121 139 800 -600 Descending Seattle Center
Tue 05:42:13 AM 47.4356 -122.3086 North 130 150 400 -632 Descending Seattle Center
Tue 05:44:00 AM 47.4499 -122.3118 290° West  Level Estimated

Login

Don't have an account? Register now (free) for customized features, flight alerts, and more!